Brice, Ohio
Current Conditions -  °F | °C
As of 10:51 PM on Saturday 25 Oct 2014 (Local Time) from KCMH Reporting Station
Clear Clear  
Wind Chill: 59°   Ceiling: Unl
Heat Index: 59°   Visibility: 10mi
Dew Point: 43°   Wind: 6mph
Humidity: 55%   Direction: 330°NNW
Pressure: 29.87"   Gusts: NA
Location:  39.92°N, 82.83°W
Report Text: KCMH 260251Z 33005KT 10SM CLR 15/06 A2987 RMK AO2 SLP112 T01500061 51011
Loading
Personal Weather Stations






























Interactive Weather Map
Tropical Storm Tracking
New forecast layout! Learn more

10-Day Weather Forecast

Advertisements
Track Severe Weather on mobile